createdAt,value
2023-04-05T00:01:56.686Z,101213.56
2023-04-05T00:04:24.161Z,101204.94
2023-04-05T00:06:52.555Z,101207.13
2023-04-05T00:09:20.722Z,101211.03
2023-04-05T00:11:48.483Z,101204.13
2023-04-05T00:14:15.398Z,101202.22
2023-04-05T00:16:42.841Z,101196.94
2023-04-05T00:19:12.809Z,101197.19
2023-04-05T00:21:39.994Z,101193.91
2023-04-05T00:24:08.093Z,101188.13
2023-04-05T00:26:35.031Z,101194.59
2023-04-05T00:29:01.658Z,101186.16
2023-04-05T00:31:29.302Z,101196.44
2023-04-05T00:33:56.176Z,101183.94
2023-04-05T00:36:22.946Z,101188.56
2023-04-05T00:38:49.840Z,101187.41
2023-04-05T00:41:16.920Z,101182.59
2023-04-05T00:43:44.060Z,101184.47
2023-04-05T00:46:11.045Z,101177.50
2023-04-05T00:48:38.852Z,101181.41
2023-04-05T00:51:09.475Z,101182.72
2023-04-05T00:53:37.601Z,101175.69
2023-04-05T00:56:05.070Z,101179.34
2023-04-05T00:58:32.071Z,101177.84
2023-04-05T01:04:11.380Z,101173.31
2023-04-05T01:24:28.867Z,101155.81
2023-04-05T01:27:10.270Z,101149.53
2023-04-05T01:29:47.349Z,101154.66
2023-04-05T01:32:24.763Z,101151.56
2023-04-05T01:35:04.385Z,101147.16
2023-04-05T01:37:34.154Z,101146.22
2023-04-05T01:40:01.793Z,101142.84
2023-04-05T01:42:29.388Z,101146.16
2023-04-05T01:44:57.407Z,101146.63
2023-04-05T01:47:24.470Z,101140.38
2023-04-05T01:49:53.771Z,101130.09
2023-04-05T01:52:21.446Z,101136.06
2023-04-05T01:54:49.386Z,101137.84
2023-04-05T01:57:16.176Z,101134.91
2023-04-05T01:59:42.768Z,101140.06
2023-04-05T02:02:09.396Z,101139.72
2023-04-05T02:04:36.081Z,101141.84
2023-04-05T02:07:03.659Z,101138.34
2023-04-05T02:09:30.274Z,101131.09
2023-04-05T02:11:57.253Z,101137.34
2023-04-05T02:14:25.186Z,101133.09
2023-04-05T02:16:55.670Z,101137.69
2023-04-05T02:19:23.373Z,101134.31
2023-04-05T02:21:52.586Z,101137.44
2023-04-05T02:24:20.307Z,101136.22
2023-04-05T02:26:47.286Z,101132.59
2023-04-05T02:29:14.046Z,101140.28
2023-04-05T02:31:42.237Z,101139.28
2023-04-05T02:34:11.627Z,101142.41
2023-04-05T02:36:38.388Z,101135.59
2023-04-05T02:39:04.984Z,101143.97
2023-04-05T02:41:31.604Z,101141.97
2023-04-05T02:43:59.903Z,101135.44
2023-04-05T02:46:29.720Z,101138.38
2023-04-05T02:48:57.075Z,101136.75
2023-04-05T02:51:27.960Z,101141.13
2023-04-05T02:53:54.920Z,101132.69
2023-04-05T02:56:22.063Z,101133.25
2023-04-05T02:58:49.393Z,101124.34
2023-04-05T03:01:22.637Z,101122.13
2023-04-05T03:03:49.923Z,101122.44
2023-04-05T03:06:16.741Z,101115.06
2023-04-05T03:08:49.342Z,101114.97
2023-04-05T03:11:22.934Z,101120.28
2023-04-05T03:13:53.162Z,101117.81
2023-04-05T03:16:34.352Z,101123.59
2023-04-05T03:19:07.924Z,101110.38
2023-04-05T03:21:37.697Z,101117.44
2023-04-05T03:24:11.671Z,101122.06
2023-04-05T03:26:41.120Z,101119.38
2023-04-05T03:29:08.114Z,101122.06
2023-04-05T03:31:37.952Z,101119.00
2023-04-05T03:34:08.488Z,101115.53
2023-04-05T03:36:43.021Z,101116.09
2023-04-05T03:39:21.028Z,101120.84
2023-04-05T03:41:48.257Z,101122.13
2023-04-05T03:44:17.263Z,101113.78
2023-04-05T03:46:45.153Z,101116.28
2023-04-05T03:49:13.693Z,101108.00
2023-04-05T03:51:40.301Z,101103.88
2023-04-05T03:54:06.891Z,101109.56
2023-04-05T03:56:35.327Z,101097.97
2023-04-05T03:59:10.332Z,101111.09
2023-04-05T04:01:38.723Z,101107.34
2023-04-05T04:04:06.256Z,101115.53
2023-04-05T04:06:33.218Z,101107.81
2023-04-05T04:09:00.012Z,101104.97
2023-04-05T04:11:28.606Z,101100.47
2023-04-05T04:13:55.586Z,101099.63
2023-04-05T04:16:35.317Z,101098.16
2023-04-05T04:19:20.475Z,101095.94
2023-04-05T04:22:10.031Z,101095.22
2023-04-05T04:25:10.829Z,101093.47
2023-04-05T04:27:54.201Z,101096.94
2023-04-05T04:30:50.053Z,101100.41
2023-04-05T04:33:37.836Z,101093.44
2023-04-05T04:36:18.179Z,101094.81
2023-04-05T04:38:57.035Z,101095.22
2023-04-05T04:41:44.808Z,101097.22
2023-04-05T04:44:37.749Z,101090.22
2023-04-05T04:47:33.791Z,101093.84
2023-04-05T04:50:19.889Z,101090.09
2023-04-05T04:52:47.741Z,101091.16
2023-04-05T04:55:14.480Z,101094.56
2023-04-05T04:57:42.507Z,101102.94
2023-04-05T05:00:14.832Z,101091.38
2023-04-05T05:02:44.173Z,101098.41
2023-04-05T05:05:14.305Z,101102.09
2023-04-05T05:07:41.907Z,101104.75
2023-04-05T05:10:10.703Z,101102.59
2023-04-05T05:12:38.796Z,101101.94
2023-04-05T05:15:06.046Z,101100.72
2023-04-05T05:17:32.838Z,101101.25
2023-04-05T05:20:04.284Z,101101.53
2023-04-05T05:22:31.345Z,101106.03
2023-04-05T05:24:57.958Z,101105.84
2023-04-05T05:27:24.619Z,101112.69
2023-04-05T05:29:51.294Z,101116.75
2023-04-05T05:32:17.893Z,101109.28
2023-04-05T05:34:45.059Z,101109.16
2023-04-05T05:37:12.700Z,101112.34
2023-04-05T05:39:39.544Z,101115.09
2023-04-05T05:42:06.693Z,101112.59
2023-04-05T05:44:33.319Z,101123.69
2023-04-05T05:46:59.925Z,101121.19
2023-04-05T05:49:26.666Z,101119.22
2023-04-05T05:51:53.611Z,101124.16
2023-04-05T05:54:20.527Z,101121.66
2023-04-05T05:56:47.133Z,101123.75
2023-04-05T05:59:13.958Z,101126.13
2023-04-05T06:01:42.820Z,101129.38
2023-04-05T06:04:09.802Z,101128.72
2023-04-05T06:06:37.888Z,101130.66
2023-04-05T06:09:04.705Z,101132.78
2023-04-05T06:11:31.305Z,101130.31
2023-04-05T06:13:58.127Z,101128.09
2023-04-05T06:16:24.851Z,101126.06
2023-04-05T06:18:51.534Z,101128.84
2023-04-05T06:21:18.185Z,101123.25
2023-04-05T06:23:44.851Z,101130.69
2023-04-05T06:26:26.995Z,101120.66
2023-04-05T06:28:54.331Z,101127.69
2023-04-05T06:31:26.365Z,101138.03
2023-04-05T06:33:52.964Z,101128.31
2023-04-05T06:36:19.593Z,101124.56
2023-04-05T06:38:46.608Z,101132.97
2023-04-05T06:41:13.525Z,101132.44
2023-04-05T06:43:40.292Z,101125.09
2023-04-05T06:46:11.584Z,101131.81
2023-04-05T06:48:39.743Z,101136.72
2023-04-05T06:51:06.444Z,101140.53
2023-04-05T06:53:33.092Z,101129.63
2023-04-05T06:56:00.254Z,101134.81
2023-04-05T06:58:27.662Z,101132.13
2023-04-05T07:00:54.733Z,101129.78
2023-04-05T07:03:21.435Z,101125.56
2023-04-05T07:05:56.798Z,101134.06
2023-04-05T07:08:23.826Z,101137.94
2023-04-05T07:10:51.396Z,101132.28
2023-04-05T07:13:19.330Z,101136.19
2023-04-05T07:15:46.126Z,101137.19
2023-04-05T07:18:15.498Z,101128.72
2023-04-05T07:20:42.522Z,101133.44
2023-04-05T07:23:09.425Z,101138.88
2023-04-05T07:25:36.126Z,101129.50
2023-04-05T07:28:02.751Z,101135.50
2023-04-05T07:30:32.009Z,101131.53
2023-04-05T07:32:58.897Z,101135.69
2023-04-05T07:35:25.735Z,101135.47
2023-04-05T07:37:52.694Z,101134.66
2023-04-05T07:40:19.438Z,101131.72
2023-04-05T07:42:46.058Z,101136.47
2023-04-05T07:45:12.696Z,101133.38
2023-04-05T07:47:39.388Z,101134.59
2023-04-05T07:50:07.140Z,101126.41
2023-04-05T07:52:33.796Z,101127.66
2023-04-05T07:55:00.390Z,101133.97
2023-04-05T07:57:27.321Z,101137.72
2023-04-05T07:59:55.649Z,101130.34
2023-04-05T08:02:22.409Z,101138.44
2023-04-05T08:04:49.045Z,101138.34
2023-04-05T08:07:15.700Z,101135.09
2023-04-05T08:09:42.314Z,101141.03
2023-04-05T08:12:11.256Z,101140.34
2023-04-05T08:14:38.020Z,101132.56
2023-04-05T08:17:04.729Z,101130.81
2023-04-05T08:19:31.351Z,101129.13
2023-04-05T08:21:58.021Z,101133.06
2023-04-05T08:24:24.771Z,101134.72
2023-04-05T08:26:51.430Z,101129.72
2023-04-05T08:29:18.025Z,101125.81
2023-04-05T08:31:44.780Z,101119.84
2023-04-05T08:34:11.515Z,101119.81
2023-04-05T08:36:38.163Z,101120.34
2023-04-05T08:39:04.734Z,101122.00
2023-04-05T08:41:37.358Z,101124.31
2023-04-05T08:44:05.833Z,101125.53
2023-04-05T08:46:34.784Z,101124.59
2023-04-05T08:49:08.778Z,101125.72
2023-04-05T08:51:41.720Z,101119.38
2023-04-05T08:54:08.358Z,101120.56
2023-04-05T08:56:36.125Z,101118.47
2023-04-05T08:59:07.899Z,101120.03
2023-04-05T09:01:38.987Z,101125.06
2023-04-05T09:04:07.611Z,101125.53
2023-04-05T09:06:36.476Z,101120.25
2023-04-05T09:09:07.658Z,101119.75
2023-04-05T09:11:35.823Z,101114.41
2023-04-05T09:14:04.929Z,101116.94
2023-04-05T09:16:36.902Z,101113.13
2023-04-05T09:19:04.020Z,101114.31
2023-04-05T09:21:57.626Z,101111.84
2023-04-05T09:24:43.735Z,101117.53
2023-04-05T09:27:11.675Z,101109.88
2023-04-05T09:29:40.566Z,101105.34
2023-04-05T09:32:09.413Z,101105.19
2023-04-05T09:34:39.057Z,101102.50
2023-04-05T09:37:19.891Z,101106.81
2023-04-05T09:39:49.742Z,101100.78
2023-04-05T09:42:19.254Z,101102.06
2023-04-05T09:45:02.674Z,101099.47
2023-04-05T09:47:36.526Z,101096.94
2023-04-05T09:50:15.574Z,101100.38
2023-04-05T09:52:43.552Z,101100.03
2023-04-05T09:55:10.654Z,101093.16
2023-04-05T09:57:39.506Z,101081.94
2023-04-05T10:00:16.837Z,101081.38
2023-04-05T10:02:43.559Z,101087.81
2023-04-05T10:05:13.479Z,101088.34
2023-04-05T10:07:43.183Z,101085.47
2023-04-05T10:10:12.346Z,101093.59
2023-04-05T10:12:45.126Z,101082.28
2023-04-05T10:15:14.209Z,101077.59
2023-04-05T10:18:03.465Z,101085.25
2023-04-05T10:20:33.355Z,101081.84
2023-04-05T10:23:01.910Z,101078.09
2023-04-05T10:25:46.806Z,101078.97
2023-04-05T10:28:36.280Z,101078.66
2023-04-05T10:31:37.712Z,101070.31
2023-04-05T10:34:06.651Z,101075.88
2023-04-05T10:36:49.110Z,101079.94
2023-04-05T10:39:30.412Z,101075.00
2023-04-05T10:42:01.443Z,101069.91
2023-04-05T10:44:34.882Z,101062.31
2023-04-05T10:47:04.197Z,101059.91
2023-04-05T10:49:39.265Z,101062.25
2023-04-05T10:52:06.814Z,101057.97
2023-04-05T10:54:36.373Z,101051.25
2023-04-05T10:57:06.948Z,101055.72
2023-04-05T10:59:39.958Z,101059.53
2023-04-05T11:02:07.187Z,101063.53
2023-04-05T11:04:34.761Z,101059.44
2023-04-05T11:07:12.990Z,101048.19
2023-04-05T11:09:52.499Z,101045.75
2023-04-05T11:12:19.279Z,101035.00
2023-04-05T11:14:46.011Z,101040.38
2023-04-05T11:17:29.032Z,101031.38
2023-04-05T11:20:05.453Z,101033.28
2023-04-05T11:22:32.137Z,101036.19
2023-04-05T11:25:03.163Z,101041.34
2023-04-05T11:27:32.450Z,101030.94
2023-04-05T11:30:00.923Z,101031.63
2023-04-05T11:32:43.467Z,101020.06
2023-04-05T11:35:14.517Z,101030.31
2023-04-05T11:38:07.928Z,101018.44
2023-04-05T11:40:36.397Z,101018.19
2023-04-05T11:43:11.321Z,101020.00
2023-04-05T11:45:39.694Z,101015.56
2023-04-05T11:48:07.641Z,101013.50
2023-04-05T11:50:35.913Z,101011.03
2023-04-05T11:53:13.064Z,101013.97
2023-04-05T11:55:44.465Z,101014.38
2023-04-05T11:58:12.368Z,101011.16
2023-04-05T12:00:40.543Z,101001.59
2023-04-05T12:03:11.841Z,101006.75
2023-04-05T12:06:06.000Z,101000.69
2023-04-05T12:08:41.760Z,101003.34
2023-04-05T12:11:10.593Z,100999.22
2023-04-05T12:13:38.533Z,100997.75
2023-04-05T12:16:07.045Z,100988.72
2023-04-05T12:18:35.703Z,100989.97
2023-04-05T12:21:08.696Z,100984.53
2023-04-05T12:23:37.156Z,100981.91
2023-04-05T12:26:06.296Z,100970.63
2023-04-05T12:28:53.051Z,100978.91
2023-04-05T12:31:45.782Z,100972.31
2023-04-05T12:34:14.618Z,100970.75
2023-04-05T12:36:46.301Z,100968.34
2023-04-05T12:39:12.886Z,100962.91
2023-04-05T12:41:39.657Z,100961.34
2023-04-05T12:44:12.361Z,100964.06
2023-04-05T12:46:47.469Z,100958.25
2023-04-05T12:49:18.787Z,100954.38
2023-04-05T12:51:47.006Z,100965.09
2023-04-05T12:54:14.871Z,100957.69
2023-04-05T12:56:42.311Z,100957.97
2023-04-05T12:59:08.982Z,100946.72
2023-04-05T13:01:35.893Z,100941.56
2023-04-05T13:04:15.653Z,100938.72
2023-04-05T13:06:44.778Z,100935.47
2023-04-05T13:09:11.407Z,100934.66
2023-04-05T13:11:38.051Z,100934.06
2023-04-05T13:14:04.641Z,100929.69
2023-04-05T13:16:31.297Z,100924.47
2023-04-05T13:18:57.894Z,100920.97
2023-04-05T13:21:24.639Z,100919.19
2023-04-05T13:23:51.285Z,100921.63
2023-04-05T13:26:17.914Z,100918.59
2023-04-05T13:28:44.518Z,100911.13
2023-04-05T13:31:11.683Z,100914.59
2023-04-05T13:33:39.616Z,100918.72
2023-04-05T13:36:06.570Z,100923.91
2023-04-05T13:38:33.195Z,100911.50
2023-04-05T13:40:59.809Z,100913.06
2023-04-05T13:43:27.923Z,100919.81
2023-04-05T13:45:54.573Z,100914.66
2023-04-05T13:48:21.184Z,100908.38
2023-04-05T13:50:48.022Z,100905.91
2023-04-05T13:53:15.718Z,100901.81
2023-04-05T13:55:42.443Z,100898.28
2023-04-05T13:58:09.256Z,100894.44
2023-04-05T14:00:35.860Z,100899.13
2023-04-05T14:03:02.600Z,100893.16
2023-04-05T14:05:29.295Z,100889.88
2023-04-05T14:07:55.892Z,100890.56
2023-04-05T14:10:23.822Z,100884.28
2023-04-05T14:12:50.515Z,100882.38
2023-04-05T14:15:17.318Z,100880.66
2023-04-05T14:17:44.145Z,100882.59
2023-04-05T14:20:11.742Z,100870.81
2023-04-05T14:22:38.475Z,100876.75
2023-04-05T14:25:08.031Z,100875.00
2023-04-05T14:27:37.527Z,100869.19
2023-04-05T14:30:04.632Z,100866.59
2023-04-05T14:32:33.781Z,100870.16
2023-04-05T14:35:00.780Z,100859.94
2023-04-05T14:37:27.442Z,100870.66
2023-04-05T14:39:54.046Z,100861.50
2023-04-05T14:42:21.598Z,100859.63
2023-04-05T14:44:48.386Z,100861.81
2023-04-05T14:47:14.973Z,100859.88
2023-04-05T14:49:41.650Z,100862.31
2023-04-05T14:52:08.319Z,100863.78
2023-04-05T14:54:34.949Z,100857.13
2023-04-05T14:57:01.586Z,100856.38
2023-04-05T14:59:28.331Z,100855.97
2023-04-05T15:01:55.356Z,100852.03
2023-04-05T15:04:22.015Z,100850.59
2023-04-05T15:06:48.806Z,100845.25
2023-04-05T15:09:15.526Z,100849.72
2023-04-05T15:11:42.257Z,100848.91
2023-04-05T15:14:13.429Z,100840.88
2023-04-05T15:16:47.955Z,100846.22
2023-04-05T15:19:14.650Z,100842.84
2023-04-05T15:21:42.694Z,100845.78
2023-04-05T15:24:10.532Z,100836.00
2023-04-05T15:26:37.215Z,100832.78
2023-04-05T15:29:03.890Z,100833.63
2023-04-05T15:31:34.181Z,100826.66
2023-04-05T15:34:01.456Z,100829.69
2023-04-05T15:36:28.389Z,100825.56
2023-04-05T15:38:55.379Z,100830.66
2023-04-05T15:41:22.216Z,100830.16
2023-04-05T15:43:49.165Z,100828.81
2023-04-05T15:46:15.993Z,100826.75
2023-04-05T15:48:43.965Z,100829.59
2023-04-05T15:51:12.001Z,100830.81
2023-04-05T15:53:38.610Z,100834.78
2023-04-05T15:56:05.575Z,100834.91
2023-04-05T15:58:32.212Z,100836.88
2023-04-05T16:00:58.871Z,100830.47
2023-04-05T16:03:25.832Z,100836.28
2023-04-05T16:05:52.731Z,100826.81
2023-04-05T16:08:19.321Z,100818.16
2023-04-05T16:10:45.989Z,100826.81
2023-04-05T16:13:12.664Z,100814.91
2023-04-05T16:15:39.377Z,100818.75
2023-04-05T16:18:06.743Z,100816.88
2023-04-05T16:20:33.445Z,100823.69
2023-04-05T16:23:00.412Z,100816.66
2023-04-05T16:25:27.111Z,100813.59
2023-04-05T16:27:53.957Z,100813.50
2023-04-05T16:30:21.072Z,100811.75
2023-04-05T16:32:50.256Z,100819.22
2023-04-05T16:35:16.914Z,100810.34
2023-04-05T16:37:43.995Z,100813.16
2023-04-05T16:40:11.681Z,100809.66
2023-04-05T16:42:39.373Z,100808.94
2023-04-05T16:45:06.759Z,100809.66
2023-04-05T16:47:33.468Z,100805.44
2023-04-05T16:50:00.280Z,100800.88
2023-04-05T16:52:31.559Z,100804.97
2023-04-05T16:54:58.118Z,100813.16
2023-04-05T16:57:24.680Z,100807.06
2023-04-05T16:59:51.614Z,100806.00
2023-04-05T17:02:18.534Z,100802.63
2023-04-05T17:04:45.525Z,100806.13
2023-04-05T17:07:12.237Z,100808.94
2023-04-05T17:09:38.866Z,100799.59
2023-04-05T17:12:05.925Z,100796.78
2023-04-05T17:14:32.621Z,100804.16
2023-04-05T17:16:59.242Z,100807.88
2023-04-05T17:19:26.198Z,100802.84
2023-04-05T17:21:53.139Z,100807.19
2023-04-05T17:24:20.141Z,100800.50
2023-04-05T17:26:47.065Z,100800.97
2023-04-05T17:29:13.956Z,100806.59
2023-04-05T17:31:42.092Z,100799.69
2023-04-05T17:34:12.996Z,100799.13
2023-04-05T17:36:40.247Z,100794.69
2023-04-05T17:39:07.364Z,100801.56
2023-04-05T17:41:34.104Z,100801.78
2023-04-05T17:44:00.830Z,100791.63
2023-04-05T17:46:39.770Z,100801.44
2023-04-05T17:49:08.296Z,100805.06
2023-04-05T17:51:35.312Z,100805.66
2023-04-05T17:54:01.997Z,100804.34
2023-04-05T17:56:28.792Z,100806.69
2023-04-05T17:58:55.678Z,100802.50
2023-04-05T18:01:22.340Z,100812.97
2023-04-05T18:03:49.027Z,100815.19
2023-04-05T18:06:17.253Z,100810.72
2023-04-05T18:08:43.872Z,100806.63
2023-04-05T18:11:10.556Z,100802.84
2023-04-05T18:13:37.208Z,100810.47
2023-04-05T18:16:03.973Z,100812.13
2023-04-05T18:18:30.732Z,100821.06
2023-04-05T18:21:01.706Z,100819.41
2023-04-05T18:23:28.757Z,100818.03
2023-04-05T18:25:55.477Z,100823.72
2023-04-05T18:28:23.603Z,100824.22
2023-04-05T18:30:51.593Z,100828.09
2023-04-05T18:33:18.603Z,100828.63
2023-04-05T18:35:49.804Z,100822.66
2023-04-05T18:38:16.639Z,100825.84
2023-04-05T18:40:43.358Z,100822.38
2023-04-05T18:43:10.295Z,100837.06
2023-04-05T18:45:38.401Z,100826.91
2023-04-05T18:48:05.465Z,100830.31
2023-04-05T18:50:32.341Z,100834.22
2023-04-05T18:52:58.924Z,100841.25
2023-04-05T18:55:25.764Z,100843.84
2023-04-05T18:57:52.451Z,100844.28
2023-04-05T19:00:19.478Z,100837.78
2023-04-05T19:02:46.243Z,100845.78
2023-04-05T19:05:13.070Z,100844.28
2023-04-05T19:07:39.710Z,100855.19
2023-04-05T19:10:07.130Z,100847.13
2023-04-05T19:12:33.789Z,100849.66
2023-04-05T19:15:00.504Z,100855.50
2023-04-05T19:17:27.644Z,100850.44
2023-04-05T19:19:54.291Z,100856.91
2023-04-05T19:22:21.002Z,100857.81
2023-04-05T19:24:47.692Z,100856.63
2023-04-05T19:27:14.369Z,100866.81
2023-04-05T19:29:41.010Z,100859.91
2023-04-05T19:32:08.954Z,100849.47
2023-04-05T19:34:37.801Z,100855.81
2023-04-05T19:37:04.898Z,100860.94
2023-04-05T19:39:33.635Z,100866.38
2023-04-05T19:42:00.828Z,100854.31
2023-04-05T19:44:57.699Z,100861.53
2023-04-05T19:47:29.973Z,100856.00
2023-04-05T19:49:57.065Z,100858.16
2023-04-05T19:52:40.598Z,100854.91
2023-04-05T19:55:33.201Z,100857.22
2023-04-05T19:58:02.107Z,100853.53
2023-04-05T20:00:29.374Z,100853.47
2023-04-05T20:02:56.167Z,100845.16
2023-04-05T20:05:44.967Z,100852.66
2023-04-05T20:08:11.861Z,100853.81
2023-04-05T20:10:47.564Z,100852.53
2023-04-05T20:13:17.044Z,100856.03
2023-04-05T20:15:48.446Z,100849.19
2023-04-05T20:18:26.767Z,100857.72
2023-04-05T20:20:54.317Z,100853.84
2023-04-05T20:23:22.509Z,100861.50
2023-04-05T20:25:51.070Z,100860.84
2023-04-05T20:28:34.920Z,100857.84
2023-04-05T20:31:24.028Z,100856.59
2023-04-05T20:33:56.211Z,100852.25
2023-04-05T20:36:33.965Z,100849.06
2023-04-05T20:39:02.549Z,100854.88
2023-04-05T20:41:29.812Z,100853.78
2023-04-05T20:43:56.610Z,100852.84
2023-04-05T20:46:24.095Z,100855.75
2023-04-05T20:48:51.076Z,100863.09
2023-04-05T20:51:17.765Z,100853.44
2023-04-05T20:53:44.463Z,100852.38
2023-04-05T20:56:12.022Z,100854.13
2023-04-05T20:58:40.459Z,100847.44
2023-04-05T21:01:08.619Z,100851.50
2023-04-05T21:03:38.230Z,100858.13
2023-04-05T21:06:08.047Z,100846.72
2023-04-05T21:08:36.490Z,100851.47
2023-04-05T21:11:03.591Z,100846.19
2023-04-05T21:13:30.400Z,100846.34
2023-04-05T21:15:58.683Z,100848.47
2023-04-05T21:18:25.571Z,100851.78
2023-04-05T21:20:53.587Z,100850.41
2023-04-05T21:23:27.563Z,100849.63
2023-04-05T21:25:55.416Z,100844.00
2023-04-05T21:28:22.619Z,100838.88
2023-04-05T21:30:49.230Z,100848.84
2023-04-05T21:33:16.713Z,100845.38
2023-04-05T21:35:43.586Z,100841.56
2023-04-05T21:38:11.615Z,100846.69
2023-04-05T21:40:39.730Z,100844.59
2023-04-05T21:43:06.480Z,100849.19
2023-04-05T21:45:33.129Z,100846.91
2023-04-05T21:47:59.804Z,100850.03
2023-04-05T21:50:27.236Z,100848.75
2023-04-05T21:52:54.039Z,100852.13
2023-04-05T21:55:20.871Z,100849.22
2023-04-05T21:57:47.545Z,100853.34
2023-04-05T22:00:15.486Z,100848.44
2023-04-05T22:02:42.419Z,100851.22
2023-04-05T22:05:09.792Z,100849.22
2023-04-05T22:07:36.606Z,100846.13
2023-04-05T22:10:04.027Z,100850.31
2023-04-05T22:12:30.942Z,100841.44
2023-04-05T22:14:57.678Z,100841.81
2023-04-05T22:17:24.417Z,100841.44
2023-04-05T22:19:51.148Z,100847.84
2023-04-05T22:22:19.459Z,100842.50
2023-04-05T22:24:46.273Z,100839.28
2023-04-05T22:27:12.942Z,100834.69
2023-04-05T22:29:39.834Z,100837.13
2023-04-05T22:32:07.060Z,100842.34
2023-04-05T22:34:33.823Z,100840.09
2023-04-05T22:37:00.887Z,100837.81
2023-04-05T22:39:27.770Z,100835.94
2023-04-05T22:41:55.199Z,100843.66
2023-04-05T22:44:22.021Z,100841.84
2023-04-05T22:46:48.670Z,100844.38
2023-04-05T22:49:15.410Z,100849.94
2023-04-05T22:51:42.140Z,100837.13
2023-04-05T22:54:08.883Z,100840.66
2023-04-05T22:56:35.929Z,100840.06
2023-04-05T22:59:02.585Z,100843.59
2023-04-05T23:01:29.250Z,100839.25
2023-04-05T23:03:55.962Z,100836.38
2023-04-05T23:06:22.582Z,100838.00
2023-04-05T23:08:49.231Z,100830.22
2023-04-05T23:11:16.033Z,100832.47
2023-04-05T23:13:42.785Z,100836.63
2023-04-05T23:16:09.660Z,100831.28
2023-04-05T23:18:36.444Z,100835.00
2023-04-05T23:21:03.252Z,100836.41
2023-04-05T23:23:29.904Z,100838.69
2023-04-05T23:25:56.619Z,100835.81
2023-04-05T23:28:23.281Z,100835.19
2023-04-05T23:30:49.884Z,100831.06
2023-04-05T23:33:16.544Z,100831.72
2023-04-05T23:35:43.214Z,100834.56
2023-04-05T23:38:09.957Z,100840.34
2023-04-05T23:40:36.585Z,100831.69
2023-04-05T23:43:03.252Z,100840.94
2023-04-05T23:45:29.921Z,100840.53
2023-04-05T23:47:56.605Z,100844.44
2023-04-05T23:50:23.377Z,100828.63
2023-04-05T23:52:50.126Z,100831.28
2023-04-05T23:55:16.908Z,100836.19
2023-04-05T23:57:43.768Z,100831.69
